sensor_id;sensor_type;location;lat;lon;timestamp;temperature;humidity
11491;DHT22;5802;52.832;4.758;2022-11-20T00:00:17;22.30;43.10
11491;DHT22;5802;52.832;4.758;2022-11-20T00:02:44;22.30;43.10
11491;DHT22;5802;52.832;4.758;2022-11-20T00:05:10;22.30;43.00
11491;DHT22;5802;52.832;4.758;2022-11-20T00:07:38;22.30;43.10
11491;DHT22;5802;52.832;4.758;2022-11-20T00:10:05;22.30;43.10
11491;DHT22;5802;52.832;4.758;2022-11-20T00:12:32;22.30;43.10
11491;DHT22;5802;52.832;4.758;2022-11-20T00:14:59;22.20;43.00
11491;DHT22;5802;52.832;4.758;2022-11-20T00:17:26;22.20;43.10
11491;DHT22;5802;52.832;4.758;2022-11-20T00:19:52;22.20;43.00
11491;DHT22;5802;52.832;4.758;2022-11-20T00:22:19;22.20;43.10
11491;DHT22;5802;52.832;4.758;2022-11-20T00:24:47;22.20;43.10
11491;DHT22;5802;52.832;4.758;2022-11-20T00:27:14;22.20;43.10
11491;DHT22;5802;52.832;4.758;2022-11-20T00:29:40;22.20;43.10
11491;DHT22;5802;52.832;4.758;2022-11-20T00:32:07;22.20;43.10
11491;DHT22;5802;52.832;4.758;2022-11-20T00:34:34;22.20;43.10
11491;DHT22;5802;52.832;4.758;2022-11-20T00:37:00;22.20;43.10
11491;DHT22;5802;52.832;4.758;2022-11-20T00:39:27;22.20;43.10
11491;DHT22;5802;52.832;4.758;2022-11-20T00:41:55;22.20;43.10
11491;DHT22;5802;52.832;4.758;2022-11-20T00:44:22;22.20;43.10
11491;DHT22;5802;52.832;4.758;2022-11-20T00:46:48;22.20;43.10
11491;DHT22;5802;52.832;4.758;2022-11-20T00:49:15;22.20;43.10
11491;DHT22;5802;52.832;4.758;2022-11-20T00:51:41;22.20;43.10
11491;DHT22;5802;52.832;4.758;2022-11-20T00:54:08;22.10;43.20
11491;DHT22;5802;52.832;4.758;2022-11-20T00:56:35;22.10;43.20
11491;DHT22;5802;52.832;4.758;2022-11-20T00:59:03;22.10;43.20
11491;DHT22;5802;52.832;4.758;2022-11-20T01:01:30;22.10;43.20
11491;DHT22;5802;52.832;4.758;2022-11-20T01:03:58;22.10;43.20
11491;DHT22;5802;52.832;4.758;2022-11-20T01:06:28;22.10;43.30
11491;DHT22;5802;52.832;4.758;2022-11-20T01:08:56;22.10;43.20
11491;DHT22;5802;52.832;4.758;2022-11-20T01:11:25;22.10;43.20
11491;DHT22;5802;52.832;4.758;2022-11-20T01:13:53;22.10;43.20
11491;DHT22;5802;52.832;4.758;2022-11-20T01:16:23;22.10;43.10
11491;DHT22;5802;52.832;4.758;2022-11-20T01:18:53;22.10;43.10
11491;DHT22;5802;52.832;4.758;2022-11-20T01:21:22;22.10;43.00
11491;DHT22;5802;52.832;4.758;2022-11-20T01:23:50;22.10;43.10
11491;DHT22;5802;52.832;4.758;2022-11-20T01:26:20;22.10;43.80
11491;DHT22;5802;52.832;4.758;2022-11-20T01:28:48;22.10;43.20
11491;DHT22;5802;52.832;4.758;2022-11-20T01:31:16;22.10;43.20
11491;DHT22;5802;52.832;4.758;2022-11-20T01:33:45;22.10;43.30
11491;DHT22;5802;52.832;4.758;2022-11-20T01:36:13;22.10;43.20
11491;DHT22;5802;52.832;4.758;2022-11-20T01:38:40;22.10;43.20
11491;DHT22;5802;52.832;4.758;2022-11-20T01:41:08;22.10;43.20
11491;DHT22;5802;52.832;4.758;2022-11-20T01:43:35;22.10;43.20
11491;DHT22;5802;52.832;4.758;2022-11-20T01:46:04;22.10;43.20
11491;DHT22;5802;52.832;4.758;2022-11-20T01:48:38;22.10;43.20
11491;DHT22;5802;52.832;4.758;2022-11-20T01:51:13;22.10;43.30
11491;DHT22;5802;52.832;4.758;2022-11-20T01:53:43;22.10;43.30
11491;DHT22;5802;52.832;4.758;2022-11-20T01:56:12;22.10;43.30
11491;DHT22;5802;52.832;4.758;2022-11-20T01:58:43;22.10;43.30
11491;DHT22;5802;52.832;4.758;2022-11-20T02:01:12;22.10;43.30
11491;DHT22;5802;52.832;4.758;2022-11-20T02:03:40;22.10;43.30
11491;DHT22;5802;52.832;4.758;2022-11-20T02:06:13;22.10;43.30
11491;DHT22;5802;52.832;4.758;2022-11-20T02:08:41;22.10;43.30
11491;DHT22;5802;52.832;4.758;2022-11-20T02:11:08;22.10;43.30
11491;DHT22;5802;52.832;4.758;2022-11-20T02:13:34;22.10;43.30
11491;DHT22;5802;52.832;4.758;2022-11-20T02:16:13;22.10;43.30
11491;DHT22;5802;52.832;4.758;2022-11-20T02:18:41;22.10;43.30
11491;DHT22;5802;52.832;4.758;2022-11-20T02:21:16;22.00;43.30
11491;DHT22;5802;52.832;4.758;2022-11-20T02:23:58;22.00;43.30
11491;DHT22;5802;52.832;4.758;2022-11-20T02:26:27;22.10;43.30
11491;DHT22;5802;52.832;4.758;2022-11-20T02:28:54;22.10;43.30
11491;DHT22;5802;52.832;4.758;2022-11-20T02:31:21;22.00;43.30
11491;DHT22;5802;52.832;4.758;2022-11-20T02:33:54;22.10;43.30
11491;DHT22;5802;52.832;4.758;2022-11-20T02:36:21;22.00;43.30
11491;DHT22;5802;52.832;4.758;2022-11-20T02:38:49;22.10;43.30
11491;DHT22;5802;52.832;4.758;2022-11-20T02:41:17;22.10;43.30
11491;DHT22;5802;52.832;4.758;2022-11-20T02:43:44;22.00;43.30
11491;DHT22;5802;52.832;4.758;2022-11-20T02:46:10;22.00;43.30
11491;DHT22;5802;52.832;4.758;2022-11-20T02:48:37;22.10;43.30
11491;DHT22;5802;52.832;4.758;2022-11-20T02:51:04;22.10;43.30
11491;DHT22;5802;52.832;4.758;2022-11-20T02:53:31;22.00;43.30
11491;DHT22;5802;52.832;4.758;2022-11-20T02:55:57;22.10;43.30
11491;DHT22;5802;52.832;4.758;2022-11-20T02:58:25;22.00;43.30
11491;DHT22;5802;52.832;4.758;2022-11-20T03:00:52;22.10;43.30
11491;DHT22;5802;52.832;4.758;2022-11-20T03:03:19;22.10;43.30
11491;DHT22;5802;52.832;4.758;2022-11-20T03:05:45;22.10;43.30
11491;DHT22;5802;52.832;4.758;2022-11-20T03:08:12;22.10;43.30
11491;DHT22;5802;52.832;4.758;2022-11-20T03:10:39;22.10;43.30
11491;DHT22;5802;52.832;4.758;2022-11-20T03:13:05;22.10;43.30
11491;DHT22;5802;52.832;4.758;2022-11-20T03:15:33;22.10;43.30
11491;DHT22;5802;52.832;4.758;2022-11-20T03:18:01;22.10;43.30
11491;DHT22;5802;52.832;4.758;2022-11-20T03:20:28;22.10;43.30
11491;DHT22;5802;52.832;4.758;2022-11-20T03:22:56;22.10;43.30
11491;DHT22;5802;52.832;4.758;2022-11-20T03:25:22;22.10;43.30
11491;DHT22;5802;52.832;4.758;2022-11-20T03:27:49;22.10;43.20
11491;DHT22;5802;52.832;4.758;2022-11-20T03:30:16;22.10;43.10
11491;DHT22;5802;52.832;4.758;2022-11-20T03:32:44;22.10;43.00
11491;DHT22;5802;52.832;4.758;2022-11-20T03:35:10;22.10;43.10
11491;DHT22;5802;52.832;4.758;2022-11-20T03:37:37;22.10;43.00
11491;DHT22;5802;52.832;4.758;2022-11-20T03:40:05;22.10;43.10
11491;DHT22;5802;52.832;4.758;2022-11-20T03:42:33;22.10;43.10
11491;DHT22;5802;52.832;4.758;2022-11-20T03:45:11;22.10;43.10
11491;DHT22;5802;52.832;4.758;2022-11-20T03:47:38;22.10;43.10
11491;DHT22;5802;52.832;4.758;2022-11-20T03:50:07;22.10;43.10
11491;DHT22;5802;52.832;4.758;2022-11-20T03:52:34;22.10;43.20
11491;DHT22;5802;52.832;4.758;2022-11-20T03:55:01;22.10;43.80
11491;DHT22;5802;52.832;4.758;2022-11-20T03:57:28;22.10;43.10
11491;DHT22;5802;52.832;4.758;2022-11-20T03:59:55;22.10;43.10
11491;DHT22;5802;52.832;4.758;2022-11-20T04:02:21;22.10;43.10
11491;DHT22;5802;52.832;4.758;2022-11-20T04:04:48;22.10;43.10
11491;DHT22;5802;52.832;4.758;2022-11-20T04:07:16;22.10;43.10
11491;DHT22;5802;52.832;4.758;2022-11-20T04:09:43;22.10;43.00
11491;DHT22;5802;52.832;4.758;2022-11-20T04:12:09;22.10;43.10
11491;DHT22;5802;52.832;4.758;2022-11-20T04:14:36;22.10;43.10
11491;DHT22;5802;52.832;4.758;2022-11-20T04:17:03;22.10;43.10
11491;DHT22;5802;52.832;4.758;2022-11-20T04:19:30;22.10;43.10
11491;DHT22;5802;52.832;4.758;2022-11-20T04:21:57;22.10;43.10
11491;DHT22;5802;52.832;4.758;2022-11-20T04:24:26;22.10;43.10
11491;DHT22;5802;52.832;4.758;2022-11-20T04:26:52;22.10;43.10
11491;DHT22;5802;52.832;4.758;2022-11-20T04:29:19;22.10;43.10
11491;DHT22;5802;52.832;4.758;2022-11-20T04:31:46;22.10;43.10
11491;DHT22;5802;52.832;4.758;2022-11-20T04:34:14;22.10;43.00
11491;DHT22;5802;52.832;4.758;2022-11-20T04:36:41;22.10;43.00
11491;DHT22;5802;52.832;4.758;2022-11-20T04:39:12;22.10;43.10
11491;DHT22;5802;52.832;4.758;2022-11-20T04:41:41;22.10;43.10
11491;DHT22;5802;52.832;4.758;2022-11-20T04:44:09;22.10;43.10
11491;DHT22;5802;52.832;4.758;2022-11-20T04:46:38;22.10;43.10
11491;DHT22;5802;52.832;4.758;2022-11-20T04:49:05;22.10;43.10
11491;DHT22;5802;52.832;4.758;2022-11-20T04:51:32;22.10;43.10
11491;DHT22;5802;52.832;4.758;2022-11-20T04:53:59;22.10;43.00
11491;DHT22;5802;52.832;4.758;2022-11-20T04:56:26;22.10;43.10
11491;DHT22;5802;52.832;4.758;2022-11-20T04:58:54;22.20;43.00
11491;DHT22;5802;52.832;4.758;2022-11-20T05:01:22;22.10;43.00
11491;DHT22;5802;52.832;4.758;2022-11-20T05:03:49;22.10;43.00
11491;DHT22;5802;52.832;4.758;2022-11-20T05:06:18;22.10;43.00
11491;DHT22;5802;52.832;4.758;2022-11-20T05:08:45;22.20;43.00
11491;DHT22;5802;52.832;4.758;2022-11-20T05:11:14;22.20;43.00
11491;DHT22;5802;52.832;4.758;2022-11-20T05:13:42;22.20;43.00
11491;DHT22;5802;52.832;4.758;2022-11-20T05:16:11;22.10;43.20
11491;DHT22;5802;52.832;4.758;2022-11-20T05:18:39;22.10;43.00
11491;DHT22;5802;52.832;4.758;2022-11-20T05:21:06;22.10;43.10
11491;DHT22;5802;52.832;4.758;2022-11-20T05:23:34;22.10;43.70
11491;DHT22;5802;52.832;4.758;2022-11-20T05:26:01;22.20;43.10
11491;DHT22;5802;52.832;4.758;2022-11-20T05:28:29;22.20;43.10
11491;DHT22;5802;52.832;4.758;2022-11-20T05:30:56;22.20;43.10
11491;DHT22;5802;52.832;4.758;2022-11-20T05:33:24;22.20;43.10
11491;DHT22;5802;52.832;4.758;2022-11-20T05:35:50;22.20;43.10
11491;DHT22;5802;52.832;4.758;2022-11-20T05:38:17;22.20;43.10
11491;DHT22;5802;52.832;4.758;2022-11-20T05:40:44;22.20;43.10
11491;DHT22;5802;52.832;4.758;2022-11-20T05:43:10;22.20;43.10
11491;DHT22;5802;52.832;4.758;2022-11-20T05:45:37;22.20;43.10
11491;DHT22;5802;52.832;4.758;2022-11-20T05:48:04;22.20;43.10
11491;DHT22;5802;52.832;4.758;2022-11-20T05:50:32;22.20;43.10
11491;DHT22;5802;52.832;4.758;2022-11-20T05:52:59;22.20;43.00
11491;DHT22;5802;52.832;4.758;2022-11-20T05:55:25;22.20;43.00
11491;DHT22;5802;52.832;4.758;2022-11-20T05:57:53;22.20;43.00
11491;DHT22;5802;52.832;4.758;2022-11-20T06:00:20;22.20;43.00
11491;DHT22;5802;52.832;4.758;2022-11-20T06:02:47;22.20;43.00
11491;DHT22;5802;52.832;4.758;2022-11-20T06:05:14;22.20;43.00
11491;DHT22;5802;52.832;4.758;2022-11-20T06:07:42;22.20;43.00
11491;DHT22;5802;52.832;4.758;2022-11-20T06:10:09;22.20;43.00
11491;DHT22;5802;52.832;4.758;2022-11-20T06:12:39;22.20;43.00
11491;DHT22;5802;52.832;4.758;2022-11-20T06:15:06;22.20;43.00
11491;DHT22;5802;52.832;4.758;2022-11-20T06:17:33;22.20;42.90
11491;DHT22;5802;52.832;4.758;2022-11-20T06:19:59;22.20;42.90
11491;DHT22;5802;52.832;4.758;2022-11-20T06:22:26;22.20;42.90
11491;DHT22;5802;52.832;4.758;2022-11-20T06:24:54;22.20;42.80
11491;DHT22;5802;52.832;4.758;2022-11-20T06:27:21;22.20;42.90
11491;DHT22;5802;52.832;4.758;2022-11-20T06:29:47;22.20;42.80
11491;DHT22;5802;52.832;4.758;2022-11-20T06:32:14;22.20;42.80
11491;DHT22;5802;52.832;4.758;2022-11-20T06:34:41;22.20;42.80
11491;DHT22;5802;52.832;4.758;2022-11-20T06:37:09;22.30;42.90
11491;DHT22;5802;52.832;4.758;2022-11-20T06:39:35;22.30;42.80
11491;DHT22;5802;52.832;4.758;2022-11-20T06:42:03;22.30;42.80
11491;DHT22;5802;52.832;4.758;2022-11-20T06:44:30;22.30;42.90
11491;DHT22;5802;52.832;4.758;2022-11-20T06:46:57;22.30;42.90
11491;DHT22;5802;52.832;4.758;2022-11-20T06:49:23;22.30;42.80
11491;DHT22;5802;52.832;4.758;2022-11-20T06:51:50;22.30;42.80
11491;DHT22;5802;52.832;4.758;2022-11-20T06:54:17;22.30;42.90
11491;DHT22;5802;52.832;4.758;2022-11-20T06:56:46;22.30;42.90
11491;DHT22;5802;52.832;4.758;2022-11-20T06:59:14;22.30;42.90
11491;DHT22;5802;52.832;4.758;2022-11-20T07:01:41;22.30;42.80
11491;DHT22;5802;52.832;4.758;2022-11-20T07:04:07;22.30;42.70
11491;DHT22;5802;52.832;4.758;2022-11-20T07:06:34;22.30;42.70
11491;DHT22;5802;52.832;4.758;2022-11-20T07:09:02;22.30;42.70
11491;DHT22;5802;52.832;4.758;2022-11-20T07:11:29;22.30;42.70
11491;DHT22;5802;52.832;4.758;2022-11-20T07:13:57;22.30;42.70
11491;DHT22;5802;52.832;4.758;2022-11-20T07:16:25;22.30;42.70
11491;DHT22;5802;52.832;4.758;2022-11-20T07:18:52;22.30;42.70
11491;DHT22;5802;52.832;4.758;2022-11-20T07:21:18;22.30;42.70
11491;DHT22;5802;52.832;4.758;2022-11-20T07:23:45;22.30;42.70
11491;DHT22;5802;52.832;4.758;2022-11-20T07:26:12;22.30;42.70
11491;DHT22;5802;52.832;4.758;2022-11-20T07:28:38;22.30;42.70
11491;DHT22;5802;52.832;4.758;2022-11-20T07:31:05;22.30;42.70
11491;DHT22;5802;52.832;4.758;2022-11-20T07:33:34;22.30;42.70
11491;DHT22;5802;52.832;4.758;2022-11-20T07:36:01;22.30;42.70
11491;DHT22;5802;52.832;4.758;2022-11-20T07:38:28;22.30;42.70
11491;DHT22;5802;52.832;4.758;2022-11-20T07:40:56;22.30;42.70
11491;DHT22;5802;52.832;4.758;2022-11-20T07:43:22;22.30;42.70
11491;DHT22;5802;52.832;4.758;2022-11-20T07:45:50;22.30;42.70
11491;DHT22;5802;52.832;4.758;2022-11-20T07:48:17;22.30;42.70
11491;DHT22;5802;52.832;4.758;2022-11-20T07:50:45;22.30;42.70
11491;DHT22;5802;52.832;4.758;2022-11-20T07:53:12;22.30;42.70
11491;DHT22;5802;52.832;4.758;2022-11-20T07:55:39;22.40;42.70
11491;DHT22;5802;52.832;4.758;2022-11-20T07:58:07;22.40;42.60
11491;DHT22;5802;52.832;4.758;2022-11-20T08:00:33;22.40;42.60
11491;DHT22;5802;52.832;4.758;2022-11-20T08:03:03;22.40;42.60
11491;DHT22;5802;52.832;4.758;2022-11-20T08:05:29;22.40;42.60
11491;DHT22;5802;52.832;4.758;2022-11-20T08:07:57;22.40;42.60
11491;DHT22;5802;52.832;4.758;2022-11-20T08:10:24;22.40;42.60
11491;DHT22;5802;52.832;4.758;2022-11-20T08:12:52;22.40;42.60
11491;DHT22;5802;52.832;4.758;2022-11-20T08:15:37;22.40;42.70
11491;DHT22;5802;52.832;4.758;2022-11-20T08:18:06;22.40;42.70
11491;DHT22;5802;52.832;4.758;2022-11-20T08:20:34;22.40;42.70
11491;DHT22;5802;52.832;4.758;2022-11-20T08:23:04;22.40;42.60
11491;DHT22;5802;52.832;4.758;2022-11-20T08:25:33;22.50;42.50
11491;DHT22;5802;52.832;4.758;2022-11-20T08:28:01;22.50;42.40
11491;DHT22;5802;52.832;4.758;2022-11-20T08:30:29;22.50;42.40
11491;DHT22;5802;52.832;4.758;2022-11-20T08:33:00;22.50;42.40
11491;DHT22;5802;52.832;4.758;2022-11-20T08:35:28;22.50;42.40
11491;DHT22;5802;52.832;4.758;2022-11-20T08:37:54;22.50;42.30
11491;DHT22;5802;52.832;4.758;2022-11-20T08:40:22;22.50;42.10
11491;DHT22;5802;52.832;4.758;2022-11-20T08:42:50;22.50;42.10
11491;DHT22;5802;52.832;4.758;2022-11-20T08:45:18;22.50;42.00
11491;DHT22;5802;52.832;4.758;2022-11-20T08:47:45;22.60;42.00
11491;DHT22;5802;52.832;4.758;2022-11-20T08:50:14;22.60;41.80
11491;DHT22;5802;52.832;4.758;2022-11-20T08:52:41;22.60;41.80
11491;DHT22;5802;52.832;4.758;2022-11-20T08:55:09;22.60;41.70
11491;DHT22;5802;52.832;4.758;2022-11-20T08:57:37;22.60;41.50
11491;DHT22;5802;52.832;4.758;2022-11-20T09:00:06;22.60;41.50
11491;DHT22;5802;52.832;4.758;2022-11-20T09:02:34;22.60;41.50
11491;DHT22;5802;52.832;4.758;2022-11-20T09:05:01;22.60;41.40
11491;DHT22;5802;52.832;4.758;2022-11-20T09:07:28;22.60;41.50
11491;DHT22;5802;52.832;4.758;2022-11-20T09:09:55;22.60;42.10
11491;DHT22;5802;52.832;4.758;2022-11-20T09:12:22;22.60;41.30
11491;DHT22;5802;52.832;4.758;2022-11-20T09:14:50;22.60;41.30
11491;DHT22;5802;52.832;4.758;2022-11-20T09:17:17;22.60;41.20
11491;DHT22;5802;52.832;4.758;2022-11-20T09:19:58;22.60;41.20
11491;DHT22;5802;52.832;4.758;2022-11-20T09:22:26;22.60;41.10
11491;DHT22;5802;52.832;4.758;2022-11-20T09:24:53;22.60;41.10
11491;DHT22;5802;52.832;4.758;2022-11-20T09:27:19;22.70;41.10
11491;DHT22;5802;52.832;4.758;2022-11-20T09:29:47;22.60;41.00
11491;DHT22;5802;52.832;4.758;2022-11-20T09:32:15;22.60;40.90
11491;DHT22;5802;52.832;4.758;2022-11-20T09:34:42;22.70;40.90
11491;DHT22;5802;52.832;4.758;2022-11-20T09:37:08;22.70;40.90
11491;DHT22;5802;52.832;4.758;2022-11-20T09:39:35;22.70;40.90
11491;DHT22;5802;52.832;4.758;2022-11-20T09:42:25;22.70;40.90
11491;DHT22;5802;52.832;4.758;2022-11-20T09:45:05;22.70;40.80
11491;DHT22;5802;52.832;4.758;2022-11-20T09:47:48;22.70;40.80
11491;DHT22;5802;52.832;4.758;2022-11-20T09:50:27;22.70;40.80
11491;DHT22;5802;52.832;4.758;2022-11-20T09:53:06;22.70;40.70
11491;DHT22;5802;52.832;4.758;2022-11-20T09:55:36;22.70;40.60
11491;DHT22;5802;52.832;4.758;2022-11-20T09:58:06;22.70;40.60
11491;DHT22;5802;52.832;4.758;2022-11-20T10:00:34;22.70;40.50
11491;DHT22;5802;52.832;4.758;2022-11-20T10:03:10;22.80;40.40
11491;DHT22;5802;52.832;4.758;2022-11-20T10:05:41;22.80;40.30
11491;DHT22;5802;52.832;4.758;2022-11-20T10:08:15;22.80;40.30
11491;DHT22;5802;52.832;4.758;2022-11-20T10:10:46;22.80;40.20
11491;DHT22;5802;52.832;4.758;2022-11-20T10:13:25;22.80;40.20
11491;DHT22;5802;52.832;4.758;2022-11-20T10:16:08;22.80;40.10
11491;DHT22;5802;52.832;4.758;2022-11-20T10:18:48;22.80;40.00
11491;DHT22;5802;52.832;4.758;2022-11-20T10:21:23;22.80;40.00
11491;DHT22;5802;52.832;4.758;2022-11-20T10:24:03;22.80;40.00
11491;DHT22;5802;52.832;4.758;2022-11-20T10:26:41;22.80;40.00
11491;DHT22;5802;52.832;4.758;2022-11-20T10:29:13;22.90;40.00
11491;DHT22;5802;52.832;4.758;2022-11-20T10:31:42;22.80;39.80
11491;DHT22;5802;52.832;4.758;2022-11-20T10:34:19;22.90;39.80
11491;DHT22;5802;52.832;4.758;2022-11-20T10:36:52;22.90;39.80
11491;DHT22;5802;52.832;4.758;2022-11-20T10:39:26;22.90;39.70
11491;DHT22;5802;52.832;4.758;2022-11-20T10:41:56;22.90;39.70
11491;DHT22;5802;52.832;4.758;2022-11-20T10:44:27;22.90;39.60
11491;DHT22;5802;52.832;4.758;2022-11-20T10:47:13;22.90;39.50
11491;DHT22;5802;52.832;4.758;2022-11-20T10:49:43;22.90;40.10
11491;DHT22;5802;52.832;4.758;2022-11-20T10:52:15;22.90;39.40
11491;DHT22;5802;52.832;4.758;2022-11-20T10:54:49;22.90;39.50
11491;DHT22;5802;52.832;4.758;2022-11-20T10:57:31;22.90;39.50
11491;DHT22;5802;52.832;4.758;2022-11-20T11:00:04;22.90;39.50
11491;DHT22;5802;52.832;4.758;2022-11-20T11:02:35;22.90;39.50
11491;DHT22;5802;52.832;4.758;2022-11-20T11:05:16;22.90;39.50
11491;DHT22;5802;52.832;4.758;2022-11-20T11:07:45;22.90;39.50
11491;DHT22;5802;52.832;4.758;2022-11-20T11:10:18;22.90;39.50
11491;DHT22;5802;52.832;4.758;2022-11-20T11:12:46;22.90;39.50
11491;DHT22;5802;52.832;4.758;2022-11-20T11:15:23;22.90;39.50
11491;DHT22;5802;52.832;4.758;2022-11-20T11:17:50;22.90;39.50
11491;DHT22;5802;52.832;4.758;2022-11-20T11:20:20;22.90;39.60
11491;DHT22;5802;52.832;4.758;2022-11-20T11:22:49;22.90;39.60
11491;DHT22;5802;52.832;4.758;2022-11-20T11:25:22;23.00;39.60
11491;DHT22;5802;52.832;4.758;2022-11-20T11:27:49;22.90;39.60
11491;DHT22;5802;52.832;4.758;2022-11-20T11:30:18;23.00;39.60
11491;DHT22;5802;52.832;4.758;2022-11-20T11:32:47;22.90;39.60
11491;DHT22;5802;52.832;4.758;2022-11-20T11:35:25;23.00;39.70
11491;DHT22;5802;52.832;4.758;2022-11-20T11:37:54;23.00;39.70
11491;DHT22;5802;52.832;4.758;2022-11-20T11:40:29;23.00;39.70
11491;DHT22;5802;52.832;4.758;2022-11-20T11:42:59;22.90;39.60
11491;DHT22;5802;52.832;4.758;2022-11-20T11:45:27;23.00;39.70
11491;DHT22;5802;52.832;4.758;2022-11-20T11:47:55;23.00;39.60
11491;DHT22;5802;52.832;4.758;2022-11-20T11:50:25;23.00;39.60
11491;DHT22;5802;52.832;4.758;2022-11-20T11:53:01;22.90;39.50
11491;DHT22;5802;52.832;4.758;2022-11-20T11:55:33;22.90;39.50
11491;DHT22;5802;52.832;4.758;2022-11-20T11:58:14;23.00;39.60
11491;DHT22;5802;52.832;4.758;2022-11-20T12:00:50;23.00;39.60
11491;DHT22;5802;52.832;4.758;2022-11-20T12:03:21;22.90;39.50
11491;DHT22;5802;52.832;4.758;2022-11-20T12:05:56;22.90;39.50
11491;DHT22;5802;52.832;4.758;2022-11-20T12:08:27;22.90;39.50
11491;DHT22;5802;52.832;4.758;2022-11-20T12:10:59;22.90;39.50
11491;DHT22;5802;52.832;4.758;2022-11-20T12:13:36;22.90;39.50
11491;DHT22;5802;52.832;4.758;2022-11-20T12:16:11;22.90;39.50
11491;DHT22;5802;52.832;4.758;2022-11-20T12:18:39;22.90;39.40
11491;DHT22;5802;52.832;4.758;2022-11-20T12:21:17;22.90;39.40
11491;DHT22;5802;52.832;4.758;2022-11-20T12:23:55;22.90;39.30
11491;DHT22;5802;52.832;4.758;2022-11-20T12:26:34;22.90;39.30
11491;DHT22;5802;52.832;4.758;2022-11-20T12:29:08;22.90;39.30
11491;DHT22;5802;52.832;4.758;2022-11-20T12:31:59;22.90;39.50
11491;DHT22;5802;52.832;4.758;2022-11-20T12:34:47;22.90;39.30
11491;DHT22;5802;52.832;4.758;2022-11-20T12:37:28;22.90;39.40
11491;DHT22;5802;52.832;4.758;2022-11-20T12:40:00;22.90;39.30
11491;DHT22;5802;52.832;4.758;2022-11-20T12:42:40;22.90;39.30
11491;DHT22;5802;52.832;4.758;2022-11-20T12:46:08;22.90;39.50
11491;DHT22;5802;52.832;4.758;2022-11-20T12:48:41;22.90;39.40
11491;DHT22;5802;52.832;4.758;2022-11-20T12:51:33;22.90;39.40
11491;DHT22;5802;52.832;4.758;2022-11-20T12:54:24;22.90;39.30
11491;DHT22;5802;52.832;4.758;2022-11-20T12:57:00;22.90;39.30
11491;DHT22;5802;52.832;4.758;2022-11-20T12:59:39;22.90;39.40
11491;DHT22;5802;52.832;4.758;2022-11-20T13:02:19;22.90;39.30
11491;DHT22;5802;52.832;4.758;2022-11-20T13:05:06;22.90;39.30
11491;DHT22;5802;52.832;4.758;2022-11-20T13:07:38;22.90;39.40
11491;DHT22;5802;52.832;4.758;2022-11-20T13:10:16;22.80;39.30
11491;DHT22;5802;52.832;4.758;2022-11-20T13:12:46;22.80;39.30
11491;DHT22;5802;52.832;4.758;2022-11-20T13:15:26;22.80;39.30
11491;DHT22;5802;52.832;4.758;2022-11-20T13:17:59;22.80;39.40
11491;DHT22;5802;52.832;4.758;2022-11-20T13:20:27;22.80;39.40
11491;DHT22;5802;52.832;4.758;2022-11-20T13:22:55;22.80;39.50
11491;DHT22;5802;52.832;4.758;2022-11-20T13:25:27;22.80;39.50
11491;DHT22;5802;52.832;4.758;2022-11-20T13:27:54;22.80;39.60
11491;DHT22;5802;52.832;4.758;2022-11-20T13:30:23;22.80;39.60
11491;DHT22;5802;52.832;4.758;2022-11-20T13:32:54;22.80;40.30
11491;DHT22;5802;52.832;4.758;2022-11-20T13:35:30;22.80;39.70
11491;DHT22;5802;52.832;4.758;2022-11-20T13:38:06;22.80;39.80
11491;DHT22;5802;52.832;4.758;2022-11-20T13:40:37;22.80;39.90
11491;DHT22;5802;52.832;4.758;2022-11-20T13:43:14;22.80;39.90
11491;DHT22;5802;52.832;4.758;2022-11-20T13:45:42;22.80;39.90
11491;DHT22;5802;52.832;4.758;2022-11-20T13:48:20;22.80;40.00
11491;DHT22;5802;52.832;4.758;2022-11-20T13:50:56;22.80;40.10
11491;DHT22;5802;52.832;4.758;2022-11-20T13:53:38;22.80;40.10
11491;DHT22;5802;52.832;4.758;2022-11-20T13:56:17;22.80;40.20
11491;DHT22;5802;52.832;4.758;2022-11-20T13:58:55;22.80;40.20
11491;DHT22;5802;52.832;4.758;2022-11-20T14:01:28;22.80;40.20
11491;DHT22;5802;52.832;4.758;2022-11-20T14:03:58;22.80;40.30
11491;DHT22;5802;52.832;4.758;2022-11-20T14:06:27;22.70;40.30
11491;DHT22;5802;52.832;4.758;2022-11-20T14:08:55;22.80;40.30
11491;DHT22;5802;52.832;4.758;2022-11-20T14:11:24;22.80;40.30
11491;DHT22;5802;52.832;4.758;2022-11-20T14:13:58;22.80;40.40
11491;DHT22;5802;52.832;4.758;2022-11-20T14:16:27;22.80;40.40
11491;DHT22;5802;52.832;4.758;2022-11-20T14:18:55;22.80;40.50
11491;DHT22;5802;52.832;4.758;2022-11-20T14:21:23;22.70;40.40
11491;DHT22;5802;52.832;4.758;2022-11-20T14:23:53;22.80;40.50
11491;DHT22;5802;52.832;4.758;2022-11-20T14:26:20;22.80;40.50
11491;DHT22;5802;52.832;4.758;2022-11-20T14:28:49;22.80;40.50
11491;DHT22;5802;52.832;4.758;2022-11-20T14:31:22;22.80;40.60
11491;DHT22;5802;52.832;4.758;2022-11-20T14:33:51;22.80;40.80
11491;DHT22;5802;52.832;4.758;2022-11-20T14:36:21;22.70;40.70
11491;DHT22;5802;52.832;4.758;2022-11-20T14:38:49;22.70;40.70
11491;DHT22;5802;52.832;4.758;2022-11-20T14:41:18;22.70;40.80
11491;DHT22;5802;52.832;4.758;2022-11-20T14:43:46;22.70;40.90
11491;DHT22;5802;52.832;4.758;2022-11-20T14:46:15;22.70;40.90
11491;DHT22;5802;52.832;4.758;2022-11-20T14:48:44;22.70;41.00
11491;DHT22;5802;52.832;4.758;2022-11-20T14:51:15;22.70;41.10
11491;DHT22;5802;52.832;4.758;2022-11-20T14:53:49;22.70;41.10
11491;DHT22;5802;52.832;4.758;2022-11-20T14:56:21;22.70;41.20
11491;DHT22;5802;52.832;4.758;2022-11-20T14:58:55;22.70;41.30
11491;DHT22;5802;52.832;4.758;2022-11-20T15:01:27;22.70;41.40
11491;DHT22;5802;52.832;4.758;2022-11-20T15:04:00;22.70;41.50
11491;DHT22;5802;52.832;4.758;2022-11-20T15:06:27;22.70;41.50
11491;DHT22;5802;52.832;4.758;2022-11-20T15:08:55;22.70;41.50
11491;DHT22;5802;52.832;4.758;2022-11-20T15:11:28;22.70;41.60
11491;DHT22;5802;52.832;4.758;2022-11-20T15:13:57;22.70;41.80
11491;DHT22;5802;52.832;4.758;2022-11-20T15:16:24;22.70;41.80
11491;DHT22;5802;52.832;4.758;2022-11-20T15:18:54;22.70;41.90
11491;DHT22;5802;52.832;4.758;2022-11-20T15:21:21;22.70;41.90
11491;DHT22;5802;52.832;4.758;2022-11-20T15:23:48;22.70;41.90
11491;DHT22;5802;52.832;4.758;2022-11-20T15:26:20;22.70;42.00
11491;DHT22;5802;52.832;4.758;2022-11-20T15:28:48;22.70;42.10
11491;DHT22;5802;52.832;4.758;2022-11-20T15:31:17;22.70;42.10
11491;DHT22;5802;52.832;4.758;2022-11-20T15:33:44;22.70;42.10
11491;DHT22;5802;52.832;4.758;2022-11-20T15:36:12;22.70;42.20
11491;DHT22;5802;52.832;4.758;2022-11-20T15:38:39;22.70;42.20
11491;DHT22;5802;52.832;4.758;2022-11-20T15:41:06;22.70;42.20
11491;DHT22;5802;52.832;4.758;2022-11-20T15:43:33;22.70;42.30
11491;DHT22;5802;52.832;4.758;2022-11-20T15:46:01;22.70;42.30
11491;DHT22;5802;52.832;4.758;2022-11-20T15:48:30;22.70;42.30
11491;DHT22;5802;52.832;4.758;2022-11-20T15:51:01;22.70;42.20
11491;DHT22;5802;52.832;4.758;2022-11-20T15:53:30;22.70;42.30
11491;DHT22;5802;52.832;4.758;2022-11-20T15:55:58;22.70;42.30
11491;DHT22;5802;52.832;4.758;2022-11-20T15:58:24;22.70;42.30
11491;DHT22;5802;52.832;4.758;2022-11-20T16:00:52;22.70;42.30